sensor_id;sensor_type;location;lat;lon;timestamp;temperature;humidity
15087;DHT22;7642;48.478;8.952;2022-09-03T00:01:34;17.60;99.90
15087;DHT22;7642;48.478;8.952;2022-09-03T00:04:11;17.80;99.90
15087;DHT22;7642;48.478;8.952;2022-09-03T00:06:48;17.60;99.90
15087;DHT22;7642;48.478;8.952;2022-09-03T00:09:28;17.70;99.90
15087;DHT22;7642;48.478;8.952;2022-09-03T00:12:09;17.70;99.90
15087;DHT22;7642;48.478;8.952;2022-09-03T00:15:05;17.70;99.90
15087;DHT22;7642;48.478;8.952;2022-09-03T00:17:37;17.60;99.90
15087;DHT22;7642;48.478;8.952;2022-09-03T00:22:41;17.40;99.90
15087;DHT22;7642;48.478;8.952;2022-09-03T00:25:12;17.30;99.90
15087;DHT22;7642;48.478;8.952;2022-09-03T00:27:40;17.30;99.90
15087;DHT22;7642;48.478;8.952;2022-09-03T00:30:15;17.40;99.90
15087;DHT22;7642;48.478;8.952;2022-09-03T00:35:30;17.40;99.90
15087;DHT22;7642;48.478;8.952;2022-09-03T00:37:59;17.40;99.90
15087;DHT22;7642;48.478;8.952;2022-09-03T00:43:42;17.30;99.90
15087;DHT22;7642;48.478;8.952;2022-09-03T00:46:59;17.30;99.90
15087;DHT22;7642;48.478;8.952;2022-09-03T00:49:24;17.30;99.90
15087;DHT22;7642;48.478;8.952;2022-09-03T00:52:30;17.20;99.90
15087;DHT22;7642;48.478;8.952;2022-09-03T00:55:23;17.20;99.90
15087;DHT22;7642;48.478;8.952;2022-09-03T01:00:54;17.20;99.90
15087;DHT22;7642;48.478;8.952;2022-09-03T01:03:38;17.30;99.90
15087;DHT22;7642;48.478;8.952;2022-09-03T01:06:16;17.20;99.90
15087;DHT22;7642;48.478;8.952;2022-09-03T01:08:58;17.20;99.90
15087;DHT22;7642;48.478;8.952;2022-09-03T01:20:11;17.20;99.90
15087;DHT22;7642;48.478;8.952;2022-09-03T01:25:51;17.20;99.90
15087;DHT22;7642;48.478;8.952;2022-09-03T01:28:40;17.00;99.90
15087;DHT22;7642;48.478;8.952;2022-09-03T01:34:09;17.00;99.90
15087;DHT22;7642;48.478;8.952;2022-09-03T01:37:00;17.10;99.90
15087;DHT22;7642;48.478;8.952;2022-09-03T01:40:21;17.00;99.90
15087;DHT22;7642;48.478;8.952;2022-09-03T01:45:53;16.90;99.90
15087;DHT22;7642;48.478;8.952;2022-09-03T01:48:40;16.90;99.90
15087;DHT22;7642;48.478;8.952;2022-09-03T01:51:22;16.90;99.90
15087;DHT22;7642;48.478;8.952;2022-09-03T01:54:19;16.80;99.90
15087;DHT22;7642;48.478;8.952;2022-09-03T01:59:52;16.80;99.90
15087;DHT22;7642;48.478;8.952;2022-09-03T02:02:23;16.80;99.90
15087;DHT22;7642;48.478;8.952;2022-09-03T02:08:06;16.80;99.90
15087;DHT22;7642;48.478;8.952;2022-09-03T02:10:38;17.60;99.90
15087;DHT22;7642;48.478;8.952;2022-09-03T02:13:09;16.40;99.90
15087;DHT22;7642;48.478;8.952;2022-09-03T02:15:37;16.80;99.90
15087;DHT22;7642;48.478;8.952;2022-09-03T02:18:06;16.80;99.90
15087;DHT22;7642;48.478;8.952;2022-09-03T02:20:36;17.10;99.90
15087;DHT22;7642;48.478;8.952;2022-09-03T02:23:02;16.80;99.90
15087;DHT22;7642;48.478;8.952;2022-09-03T02:25:55;16.70;99.90
15087;DHT22;7642;48.478;8.952;2022-09-03T02:28:21;16.70;99.90
15087;DHT22;7642;48.478;8.952;2022-09-03T02:30:47;16.60;99.90
15087;DHT22;7642;48.478;8.952;2022-09-03T02:33:13;16.60;99.90
15087;DHT22;7642;48.478;8.952;2022-09-03T02:35:40;17.10;99.90
15087;DHT22;7642;48.478;8.952;2022-09-03T02:38:17;16.80;99.90
15087;DHT22;7642;48.478;8.952;2022-09-03T02:40:44;16.50;99.90
15087;DHT22;7642;48.478;8.952;2022-09-03T02:46:04;16.30;99.90
15087;DHT22;7642;48.478;8.952;2022-09-03T02:48:32;16.20;99.90
15087;DHT22;7642;48.478;8.952;2022-09-03T02:50:58;16.10;99.90
15087;DHT22;7642;48.478;8.952;2022-09-03T02:53:23;16.10;99.90
15087;DHT22;7642;48.478;8.952;2022-09-03T02:55:49;16.10;99.90
15087;DHT22;7642;48.478;8.952;2022-09-03T02:58:15;16.10;99.90
15087;DHT22;7642;48.478;8.952;2022-09-03T03:00:41;16.10;99.90
15087;DHT22;7642;48.478;8.952;2022-09-03T03:03:06;16.00;99.90
15087;DHT22;7642;48.478;8.952;2022-09-03T03:05:42;16.00;99.90
15087;DHT22;7642;48.478;8.952;2022-09-03T03:08:10;16.00;99.90
15087;DHT22;7642;48.478;8.952;2022-09-03T03:10:40;16.00;99.90
15087;DHT22;7642;48.478;8.952;2022-09-03T03:13:05;16.00;99.90
15087;DHT22;7642;48.478;8.952;2022-09-03T03:15:31;16.40;99.90
15087;DHT22;7642;48.478;8.952;2022-09-03T03:17:57;16.10;99.90
15087;DHT22;7642;48.478;8.952;2022-09-03T03:20:22;16.10;99.90
15087;DHT22;7642;48.478;8.952;2022-09-03T03:22:48;16.10;99.90
15087;DHT22;7642;48.478;8.952;2022-09-03T03:25:14;20.00;99.90
15087;DHT22;7642;48.478;8.952;2022-09-03T03:27:39;16.00;99.90
15087;DHT22;7642;48.478;8.952;2022-09-03T03:30:07;16.00;99.90
15087;DHT22;7642;48.478;8.952;2022-09-03T03:32:38;16.00;99.90
15087;DHT22;7642;48.478;8.952;2022-09-03T03:35:04;16.10;99.90
15087;DHT22;7642;48.478;8.952;2022-09-03T03:37:31;16.00;99.90
15087;DHT22;7642;48.478;8.952;2022-09-03T03:39:57;16.00;99.90
15087;DHT22;7642;48.478;8.952;2022-09-03T03:42:23;16.00;99.90
15087;DHT22;7642;48.478;8.952;2022-09-03T03:44:48;16.50;99.90
15087;DHT22;7642;48.478;8.952;2022-09-03T03:47:14;15.90;99.90
15087;DHT22;7642;48.478;8.952;2022-09-03T03:49:41;16.00;99.90
15087;DHT22;7642;48.478;8.952;2022-09-03T03:52:07;16.10;99.90
15087;DHT22;7642;48.478;8.952;2022-09-03T03:54:33;16.10;99.90
15087;DHT22;7642;48.478;8.952;2022-09-03T03:56:58;16.10;99.90
15087;DHT22;7642;48.478;8.952;2022-09-03T03:59:24;16.10;99.90
15087;DHT22;7642;48.478;8.952;2022-09-03T04:01:50;16.10;99.90
15087;DHT22;7642;48.478;8.952;2022-09-03T04:04:15;16.10;99.90
15087;DHT22;7642;48.478;8.952;2022-09-03T04:06:41;16.10;99.90
15087;DHT22;7642;48.478;8.952;2022-09-03T04:09:07;16.00;99.90
15087;DHT22;7642;48.478;8.952;2022-09-03T04:11:32;16.10;99.90
15087;DHT22;7642;48.478;8.952;2022-09-03T04:13:58;15.90;99.90
15087;DHT22;7642;48.478;8.952;2022-09-03T04:16:25;15.80;99.90
15087;DHT22;7642;48.478;8.952;2022-09-03T04:18:55;15.80;99.90
15087;DHT22;7642;48.478;8.952;2022-09-03T04:21:26;15.80;99.90
15087;DHT22;7642;48.478;8.952;2022-09-03T04:23:53;15.80;99.90
15087;DHT22;7642;48.478;8.952;2022-09-03T04:26:21;15.80;99.90
15087;DHT22;7642;48.478;8.952;2022-09-03T04:28:47;15.80;99.90
15087;DHT22;7642;48.478;8.952;2022-09-03T04:31:14;15.80;99.90
15087;DHT22;7642;48.478;8.952;2022-09-03T04:33:40;15.80;99.90
15087;DHT22;7642;48.478;8.952;2022-09-03T04:36:27;15.80;99.90
15087;DHT22;7642;48.478;8.952;2022-09-03T04:38:54;15.80;99.90
15087;DHT22;7642;48.478;8.952;2022-09-03T04:41:27;15.80;99.90
15087;DHT22;7642;48.478;8.952;2022-09-03T04:43:54;15.70;99.90
15087;DHT22;7642;48.478;8.952;2022-09-03T04:46:22;15.70;99.90
15087;DHT22;7642;48.478;8.952;2022-09-03T04:48:51;15.70;99.90
15087;DHT22;7642;48.478;8.952;2022-09-03T04:51:19;15.80;99.90
15087;DHT22;7642;48.478;8.952;2022-09-03T04:53:46;16.20;99.90
15087;DHT22;7642;48.478;8.952;2022-09-03T04:56:19;15.80;99.90
15087;DHT22;7642;48.478;8.952;2022-09-03T04:58:45;15.80;99.90
15087;DHT22;7642;48.478;8.952;2022-09-03T05:01:17;15.90;99.90
15087;DHT22;7642;48.478;8.952;2022-09-03T05:03:43;15.70;99.90
15087;DHT22;7642;48.478;8.952;2022-09-03T05:06:09;15.70;99.90
15087;DHT22;7642;48.478;8.952;2022-09-03T05:08:35;15.80;99.90
15087;DHT22;7642;48.478;8.952;2022-09-03T05:11:03;15.70;99.90
15087;DHT22;7642;48.478;8.952;2022-09-03T05:13:29;15.80;99.90
15087;DHT22;7642;48.478;8.952;2022-09-03T05:16:02;15.80;99.90
15087;DHT22;7642;48.478;8.952;2022-09-03T05:18:28;15.90;99.90
15087;DHT22;7642;48.478;8.952;2022-09-03T05:21:09;15.90;99.90
15087;DHT22;7642;48.478;8.952;2022-09-03T05:23:40;15.90;99.90
15087;DHT22;7642;48.478;8.952;2022-09-03T05:26:08;16.00;99.90
15087;DHT22;7642;48.478;8.952;2022-09-03T05:28:36;16.80;99.90
15087;DHT22;7642;48.478;8.952;2022-09-03T05:31:05;16.10;99.90
15087;DHT22;7642;48.478;8.952;2022-09-03T05:33:40;16.10;99.90
15087;DHT22;7642;48.478;8.952;2022-09-03T05:36:09;16.20;99.90
15087;DHT22;7642;48.478;8.952;2022-09-03T05:38:36;16.20;99.90
15087;DHT22;7642;48.478;8.952;2022-09-03T05:41:07;16.20;99.90
15087;DHT22;7642;48.478;8.952;2022-09-03T05:43:34;16.20;99.90
15087;DHT22;7642;48.478;8.952;2022-09-03T05:46:05;16.20;99.90
15087;DHT22;7642;48.478;8.952;2022-09-03T05:48:33;16.20;99.90
15087;DHT22;7642;48.478;8.952;2022-09-03T05:50:59;16.20;99.90
15087;DHT22;7642;48.478;8.952;2022-09-03T05:53:26;16.20;99.90
15087;DHT22;7642;48.478;8.952;2022-09-03T05:55:56;16.30;99.90
15087;DHT22;7642;48.478;8.952;2022-09-03T05:58:22;16.30;99.90
15087;DHT22;7642;48.478;8.952;2022-09-03T06:00:47;16.30;99.90
15087;DHT22;7642;48.478;8.952;2022-09-03T06:03:13;16.40;99.90
15087;DHT22;7642;48.478;8.952;2022-09-03T06:05:38;16.50;99.90
15087;DHT22;7642;48.478;8.952;2022-09-03T06:08:04;16.50;99.90
15087;DHT22;7642;48.478;8.952;2022-09-03T06:10:30;16.50;99.90
15087;DHT22;7642;48.478;8.952;2022-09-03T06:12:55;16.50;99.90
15087;DHT22;7642;48.478;8.952;2022-09-03T06:15:25;16.40;99.90
15087;DHT22;7642;48.478;8.952;2022-09-03T06:17:51;16.40;99.90
15087;DHT22;7642;48.478;8.952;2022-09-03T06:20:16;16.40;99.90
15087;DHT22;7642;48.478;8.952;2022-09-03T06:22:47;16.50;99.90
15087;DHT22;7642;48.478;8.952;2022-09-03T06:27:39;16.60;99.90
15087;DHT22;7642;48.478;8.952;2022-09-03T06:30:05;16.70;99.90
15087;DHT22;7642;48.478;8.952;2022-09-03T06:32:31;16.70;99.90
15087;DHT22;7642;48.478;8.952;2022-09-03T06:34:57;16.60;99.90
15087;DHT22;7642;48.478;8.952;2022-09-03T06:37:23;16.70;99.90
15087;DHT22;7642;48.478;8.952;2022-09-03T06:42:16;16.70;99.90
15087;DHT22;7642;48.478;8.952;2022-09-03T06:44:42;16.70;99.90
15087;DHT22;7642;48.478;8.952;2022-09-03T06:47:09;16.70;99.90
15087;DHT22;7642;48.478;8.952;2022-09-03T06:49:35;16.60;99.90
15087;DHT22;7642;48.478;8.952;2022-09-03T06:52:00;16.70;99.90
15087;DHT22;7642;48.478;8.952;2022-09-03T06:54:26;18.20;99.90
15087;DHT22;7642;48.478;8.952;2022-09-03T06:59:17;16.70;99.90
15087;DHT22;7642;48.478;8.952;2022-09-03T07:01:43;16.70;99.90
15087;DHT22;7642;48.478;8.952;2022-09-03T07:04:09;16.80;99.90
15087;DHT22;7642;48.478;8.952;2022-09-03T07:06:38;16.90;99.90
15087;DHT22;7642;48.478;8.952;2022-09-03T07:09:06;16.90;99.90
15087;DHT22;7642;48.478;8.952;2022-09-03T07:11:32;16.90;99.90
15087;DHT22;7642;48.478;8.952;2022-09-03T07:14:00;16.90;99.90
15087;DHT22;7642;48.478;8.952;2022-09-03T07:16:35;16.90;99.90
15087;DHT22;7642;48.478;8.952;2022-09-03T07:19:01;16.90;99.90
15087;DHT22;7642;48.478;8.952;2022-09-03T07:21:30;17.00;99.90
15087;DHT22;7642;48.478;8.952;2022-09-03T07:23:57;17.00;99.90
15087;DHT22;7642;48.478;8.952;2022-09-03T07:26:31;17.10;99.90
15087;DHT22;7642;48.478;8.952;2022-09-03T07:28:58;17.20;99.90
15087;DHT22;7642;48.478;8.952;2022-09-03T07:31:26;17.30;99.90
15087;DHT22;7642;48.478;8.952;2022-09-03T07:33:56;17.50;99.90
15087;DHT22;7642;48.478;8.952;2022-09-03T07:36:23;17.70;99.90
15087;DHT22;7642;48.478;8.952;2022-09-03T07:38:49;18.00;99.90
15087;DHT22;7642;48.478;8.952;2022-09-03T07:41:15;18.20;99.90
15087;DHT22;7642;48.478;8.952;2022-09-03T07:43:45;18.40;99.90
15087;DHT22;7642;48.478;8.952;2022-09-03T07:46:16;18.60;99.90
15087;DHT22;7642;48.478;8.952;2022-09-03T07:48:48;18.70;99.90
15087;DHT22;7642;48.478;8.952;2022-09-03T07:51:15;19.00;99.90
15087;DHT22;7642;48.478;8.952;2022-09-03T07:53:42;19.20;99.90
15087;DHT22;7642;48.478;8.952;2022-09-03T07:56:09;19.30;99.90
15087;DHT22;7642;48.478;8.952;2022-09-03T07:58:36;19.50;99.90
15087;DHT22;7642;48.478;8.952;2022-09-03T08:01:13;19.50;99.90
15087;DHT22;7642;48.478;8.952;2022-09-03T08:03:44;19.50;99.90
15087;DHT22;7642;48.478;8.952;2022-09-03T08:06:11;19.70;99.90
15087;DHT22;7642;48.478;8.952;2022-09-03T08:08:38;20.00;99.90
15087;DHT22;7642;48.478;8.952;2022-09-03T08:11:06;20.30;99.90
15087;DHT22;7642;48.478;8.952;2022-09-03T08:13:36;20.50;99.90
15087;DHT22;7642;48.478;8.952;2022-09-03T08:16:02;20.80;99.90
15087;DHT22;7642;48.478;8.952;2022-09-03T08:18:27;21.10;99.90
15087;DHT22;7642;48.478;8.952;2022-09-03T08:20:58;21.10;99.90
15087;DHT22;7642;48.478;8.952;2022-09-03T08:23:24;21.30;99.90
15087;DHT22;7642;48.478;8.952;2022-09-03T08:25:59;21.40;99.90
15087;DHT22;7642;48.478;8.952;2022-09-03T08:28:26;21.50;99.90
15087;DHT22;7642;48.478;8.952;2022-09-03T08:30:52;21.50;99.90
15087;DHT22;7642;48.478;8.952;2022-09-03T08:33:17;21.50;99.90
15087;DHT22;7642;48.478;8.952;2022-09-03T08:36:05;21.50;99.90
15087;DHT22;7642;48.478;8.952;2022-09-03T08:38:32;21.50;99.90
15087;DHT22;7642;48.478;8.952;2022-09-03T08:41:06;21.70;99.90
15087;DHT22;7642;48.478;8.952;2022-09-03T08:44:09;22.00;99.90
15087;DHT22;7642;48.478;8.952;2022-09-03T08:51:50;22.60;99.90
15087;DHT22;7642;48.478;8.952;2022-09-03T08:54:17;22.60;99.90
15087;DHT22;7642;48.478;8.952;2022-09-03T08:56:45;22.90;99.90
15087;DHT22;7642;48.478;8.952;2022-09-03T08:59:10;23.20;99.90
15087;DHT22;7642;48.478;8.952;2022-09-03T09:01:56;23.30;99.90
15087;DHT22;7642;48.478;8.952;2022-09-03T09:04:49;23.70;99.90
15087;DHT22;7642;48.478;8.952;2022-09-03T09:54:24;22.50;99.90
15087;DHT22;7642;48.478;8.952;2022-09-03T09:57:00;22.60;99.90
15087;DHT22;7642;48.478;8.952;2022-09-03T09:59:28;22.90;99.90
15087;DHT22;7642;48.478;8.952;2022-09-03T10:02:06;23.10;99.90
15087;DHT22;7642;48.478;8.952;2022-09-03T10:04:33;23.20;99.90
15087;DHT22;7642;48.478;8.952;2022-09-03T10:12:44;23.40;99.90
15087;DHT22;7642;48.478;8.952;2022-09-03T10:23:34;23.50;99.90
15087;DHT22;7642;48.478;8.952;2022-09-03T10:26:15;23.50;99.90
15087;DHT22;7642;48.478;8.952;2022-09-03T10:28:42;23.60;99.90
15087;DHT22;7642;48.478;8.952;2022-09-03T10:31:17;23.60;99.90
15087;DHT22;7642;48.478;8.952;2022-09-03T10:33:51;23.60;99.90
15087;DHT22;7642;48.478;8.952;2022-09-03T10:36:25;23.80;99.90
15087;DHT22;7642;48.478;8.952;2022-09-03T10:39:05;24.00;99.90
15087;DHT22;7642;48.478;8.952;2022-09-03T10:44:35;23.70;99.90
15087;DHT22;7642;48.478;8.952;2022-09-03T10:47:36;23.40;99.90
15087;DHT22;7642;48.478;8.952;2022-09-03T10:50:13;23.40;99.90
15087;DHT22;7642;48.478;8.952;2022-09-03T10:56:00;23.10;99.90
15087;DHT22;7642;48.478;8.952;2022-09-03T10:58:42;22.80;99.90
15087;DHT22;7642;48.478;8.952;2022-09-03T11:07:06;22.70;99.90
15087;DHT22;7642;48.478;8.952;2022-09-03T11:12:16;22.70;99.90
15087;DHT22;7642;48.478;8.952;2022-09-03T11:14:52;22.60;99.90
15087;DHT22;7642;48.478;8.952;2022-09-03T11:17:27;22.60;99.90
15087;DHT22;7642;48.478;8.952;2022-09-03T11:20:06;22.50;99.90
15087;DHT22;7642;48.478;8.952;2022-09-03T11:22:35;22.40;99.90
15087;DHT22;7642;48.478;8.952;2022-09-03T11:25:04;22.30;99.90
15087;DHT22;7642;48.478;8.952;2022-09-03T11:30:23;21.10;99.90
15087;DHT22;7642;48.478;8.952;2022-09-03T11:33:00;19.60;99.90
15087;DHT22;7642;48.478;8.952;2022-09-03T11:38:04;19.10;99.90
15087;DHT22;7642;48.478;8.952;2022-09-03T11:40:34;18.20;99.90
15087;DHT22;7642;48.478;8.952;2022-09-03T11:48:47;17.90;99.90
15087;DHT22;7642;48.478;8.952;2022-09-03T11:54:06;17.50;99.90
15087;DHT22;7642;48.478;8.952;2022-09-03T11:56:33;17.50;99.90
15087;DHT22;7642;48.478;8.952;2022-09-03T12:01:28;17.50;99.90
15087;DHT22;7642;48.478;8.952;2022-09-03T12:04:03;17.70;99.90
15087;DHT22;7642;48.478;8.952;2022-09-03T12:12:38;18.00;99.90
15087;DHT22;7642;48.478;8.952;2022-09-03T12:15:20;18.00;99.90
15087;DHT22;7642;48.478;8.952;2022-09-03T12:17:58;18.00;99.90
15087;DHT22;7642;48.478;8.952;2022-09-03T12:23:31;18.00;99.90
15087;DHT22;7642;48.478;8.952;2022-09-03T12:26:04;18.00;99.90
15087;DHT22;7642;48.478;8.952;2022-09-03T12:28:34;18.00;99.90
15087;DHT22;7642;48.478;8.952;2022-09-03T12:33:46;18.20;99.90
15087;DHT22;7642;48.478;8.952;2022-09-03T12:36:12;18.20;99.90
15087;DHT22;7642;48.478;8.952;2022-09-03T12:38:38;18.30;99.90
15087;DHT22;7642;48.478;8.952;2022-09-03T12:41:04;18.40;99.90
15087;DHT22;7642;48.478;8.952;2022-09-03T12:43:29;18.40;99.90
15087;DHT22;7642;48.478;8.952;2022-09-03T12:45:55;18.40;99.90
15087;DHT22;7642;48.478;8.952;2022-09-03T12:48:21;18.50;99.90
15087;DHT22;7642;48.478;8.952;2022-09-03T12:50:47;18.60;99.90
15087;DHT22;7642;48.478;8.952;2022-09-03T12:53:20;18.50;99.90
15087;DHT22;7642;48.478;8.952;2022-09-03T12:55:54;19.60;99.90
15087;DHT22;7642;48.478;8.952;2022-09-03T13:01:07;18.40;99.90
15087;DHT22;7642;48.478;8.952;2022-09-03T13:03:49;18.90;99.90
15087;DHT22;7642;48.478;8.952;2022-09-03T13:06:28;19.50;99.90
15087;DHT22;7642;48.478;8.952;2022-09-03T13:09:00;20.10;99.90
15087;DHT22;7642;48.478;8.952;2022-09-03T13:11:31;20.70;99.90
15087;DHT22;7642;48.478;8.952;2022-09-03T13:14:08;20.90;99.90
15087;DHT22;7642;48.478;8.952;2022-09-03T13:16:50;20.80;99.90
15087;DHT22;7642;48.478;8.952;2022-09-03T13:19:26;20.60;99.90
15087;DHT22;7642;48.478;8.952;2022-09-03T13:24:36;20.80;99.90
15087;DHT22;7642;48.478;8.952;2022-09-03T13:27:22;20.70;99.90
15087;DHT22;7642;48.478;8.952;2022-09-03T13:30:13;21.10;99.90
15087;DHT22;7642;48.478;8.952;2022-09-03T13:32:52;20.80;99.90
15087;DHT22;7642;48.478;8.952;2022-09-03T13:35:27;21.20;99.90
15087;DHT22;7642;48.478;8.952;2022-09-03T13:38:17;21.50;99.90
15087;DHT22;7642;48.478;8.952;2022-09-03T13:43:46;21.80;99.90
15087;DHT22;7642;48.478;8.952;2022-09-03T13:46:50;22.30;99.90
15087;DHT22;7642;48.478;8.952;2022-09-03T13:49:38;22.60;99.90
15087;DHT22;7642;48.478;8.952;2022-09-03T13:52:33;22.90;99.90
15087;DHT22;7642;48.478;8.952;2022-09-03T13:55:08;23.30;99.90
15087;DHT22;7642;48.478;8.952;2022-09-03T13:57:58;23.10;99.90
15087;DHT22;7642;48.478;8.952;2022-09-03T14:00:45;23.60;99.90
15087;DHT22;7642;48.478;8.952;2022-09-03T14:03:30;23.50;99.90
15087;DHT22;7642;48.478;8.952;2022-09-03T14:06:45;24.10;99.90
15087;DHT22;7642;48.478;8.952;2022-09-03T14:17:58;25.10;99.90
15087;DHT22;7642;48.478;8.952;2022-09-03T14:20:35;25.60;99.90
15087;DHT22;7642;48.478;8.952;2022-09-03T14:23:17;25.30;99.90
15087;DHT22;7642;48.478;8.952;2022-09-03T14:25:57;25.60;99.90
15087;DHT22;7642;48.478;8.952;2022-09-03T14:28:33;25.60;99.90
15087;DHT22;7642;48.478;8.952;2022-09-03T14:33:51;23.90;99.90
15087;DHT22;7642;48.478;8.952;2022-09-03T14:36:40;23.60;99.90
15087;DHT22;7642;48.478;8.952;2022-09-03T14:42:17;23.70;99.90
15087;DHT22;7642;48.478;8.952;2022-09-03T14:45:00;23.40;99.90
15087;DHT22;7642;48.478;8.952;2022-09-03T14:56:00;23.30;99.90
15087;DHT22;7642;48.478;8.952;2022-09-03T15:01:24;23.50;99.90
15087;DHT22;7642;48.478;8.952;2022-09-03T15:04:28;23.60;99.90
15087;DHT22;7642;48.478;8.952;2022-09-03T15:12:24;24.20;99.90
15087;DHT22;7642;48.478;8.952;2022-09-03T15:14:54;24.10;99.90
15087;DHT22;7642;48.478;8.952;2022-09-03T15:25:36;23.50;99.90
15087;DHT22;7642;48.478;8.952;2022-09-03T15:30:44;23.50;99.90
15087;DHT22;7642;48.478;8.952;2022-09-03T15:33:32;24.10;99.90
15087;DHT22;7642;48.478;8.952;2022-09-03T15:38:49;24.10;99.90
15087;DHT22;7642;48.478;8.952;2022-09-03T15:44:12;24.70;99.90
15087;DHT22;7642;48.478;8.952;2022-09-03T15:46:54;25.10;99.90
15087;DHT22;7642;48.478;8.952;2022-09-03T16:00:17;23.80;99.90
15087;DHT22;7642;48.478;8.952;2022-09-03T16:03:05;24.00;99.90
15087;DHT22;7642;48.478;8.952;2022-09-03T16:08:40;24.30;99.90
15087;DHT22;7642;48.478;8.952;2022-09-03T16:14:07;24.20;99.90
15087;DHT22;7642;48.478;8.952;2022-09-03T16:16:56;24.10;99.90
15087;DHT22;7642;48.478;8.952;2022-09-03T16:19:57;23.80;99.90
15087;DHT22;7642;48.478;8.952;2022-09-03T16:22:29;23.60;99.90
15087;DHT22;7642;48.478;8.952;2022-09-03T16:34:21;23.20;99.90
15087;DHT22;7642;48.478;8.952;2022-09-03T16:36:41;23.30;99.90
15087;DHT22;7642;48.478;8.952;2022-09-03T16:47:56;23.20;99.90
15087;DHT22;7642;48.478;8.952;2022-09-03T16:56:25;23.20;99.90
15087;DHT22;7642;48.478;8.952;2022-09-03T17:05:00;23.00;99.90
15087;DHT22;7642;48.478;8.952;2022-09-03T17:10:36;22.90;99.90
15087;DHT22;7642;48.478;8.952;2022-09-03T17:13:13;22.90;99.90
15087;DHT22;7642;48.478;8.952;2022-09-03T17:15:56;22.70;99.90
15087;DHT22;7642;48.478;8.952;2022-09-03T17:18:47;22.60;99.90
15087;DHT22;7642;48.478;8.952;2022-09-03T17:21:21;22.50;99.90
15087;DHT22;7642;48.478;8.952;2022-09-03T17:30:06;22.40;99.90
15087;DHT22;7642;48.478;8.952;2022-09-03T17:46:27;22.10;99.90
15087;DHT22;7642;48.478;8.952;2022-09-03T17:48:57;22.00;99.90
15087;DHT22;7642;48.478;8.952;2022-09-03T17:57:14;21.70;99.90
15087;DHT22;7642;48.478;8.952;2022-09-03T18:00:08;21.60;99.90
15087;DHT22;7642;48.478;8.952;2022-09-03T18:05:26;21.40;99.90
15087;DHT22;7642;48.478;8.952;2022-09-03T18:15:51;20.90;99.90
15087;DHT22;7642;48.478;8.952;2022-09-03T18:18:27;20.80;99.90
15087;DHT22;7642;48.478;8.952;2022-09-03T18:20:58;20.70;99.90
15087;DHT22;7642;48.478;8.952;2022-09-03T18:26:56;20.40;99.90
15087;DHT22;7642;48.478;8.952;2022-09-03T18:29:49;20.30;99.90
15087;DHT22;7642;48.478;8.952;2022-09-03T18:32:37;20.10;99.90
15087;DHT22;7642;48.478;8.952;2022-09-03T18:35:22;19.90;99.90
15087;DHT22;7642;48.478;8.952;2022-09-03T18:38:08;20.10;99.90
15087;DHT22;7642;48.478;8.952;2022-09-03T18:41:03;19.70;99.90
15087;DHT22;7642;48.478;8.952;2022-09-03T18:44:10;20.10;99.90
15087;DHT22;7642;48.478;8.952;2022-09-03T18:50:18;19.50;99.90
15087;DHT22;7642;48.478;8.952;2022-09-03T18:53:17;19.50;99.90
15087;DHT22;7642;48.478;8.952;2022-09-03T18:56:25;19.40;99.90
15087;DHT22;7642;48.478;8.952;2022-09-03T18:59:41;19.40;99.90
15087;DHT22;7642;48.478;8.952;2022-09-03T19:02:51;19.30;99.90
15087;DHT22;7642;48.478;8.952;2022-09-03T19:09:08;19.20;99.90
15087;DHT22;7642;48.478;8.952;2022-09-03T19:15:30;18.90;99.90
15087;DHT22;7642;48.478;8.952;2022-09-03T19:22:01;18.60;99.90
15087;DHT22;7642;48.478;8.952;2022-09-03T19:24:51;18.60;99.90
15087;DHT22;7642;48.478;8.952;2022-09-03T19:30:44;18.60;99.90
15087;DHT22;7642;48.478;8.952;2022-09-03T19:33:44;18.50;99.90
15087;DHT22;7642;48.478;8.952;2022-09-03T19:37:17;18.50;99.90
15087;DHT22;7642;48.478;8.952;2022-09-03T19:43:11;18.50;99.90
15087;DHT22;7642;48.478;8.952;2022-09-03T19:46:09;18.50;99.90
15087;DHT22;7642;48.478;8.952;2022-09-03T19:54:59;18.50;99.90
15087;DHT22;7642;48.478;8.952;2022-09-03T19:57:49;19.00;99.90
15087;DHT22;7642;48.478;8.952;2022-09-03T20:00:35;18.20;99.90
15087;DHT22;7642;48.478;8.952;2022-09-03T20:03:20;18.20;99.90
15087;DHT22;7642;48.478;8.952;2022-09-03T20:06:05;18.50;99.90
15087;DHT22;7642;48.478;8.952;2022-09-03T20:08:50;18.10;99.90
15087;DHT22;7642;48.478;8.952;2022-09-03T20:11:36;18.10;99.90
15087;DHT22;7642;48.478;8.952;2022-09-03T20:14:12;18.10;99.90
15087;DHT22;7642;48.478;8.952;2022-09-03T20:16:53;18.10;99.90
15087;DHT22;7642;48.478;8.952;2022-09-03T20:19:36;18.10;99.90
15087;DHT22;7642;48.478;8.952;2022-09-03T20:33:51;17.80;99.90
15087;DHT22;7642;48.478;8.952;2022-09-03T20:36:59;17.70;99.90
15087;DHT22;7642;48.478;8.952;2022-09-03T20:39:53;17.70;99.90
15087;DHT22;7642;48.478;8.952;2022-09-03T20:42:29;17.70;99.90
15087;DHT22;7642;48.478;8.952;2022-09-03T20:48:20;17.60;99.90
15087;DHT22;7642;48.478;8.952;2022-09-03T20:51:09;17.60;99.90
15087;DHT22;7642;48.478;8.952;2022-09-03T21:17:39;17.60;99.90
15087;DHT22;7642;48.478;8.952;2022-09-03T21:20:33;17.50;99.90
15087;DHT22;7642;48.478;8.952;2022-09-03T21:26:02;17.50;99.90
15087;DHT22;7642;48.478;8.952;2022-09-03T21:28:35;17.40;99.90
15087;DHT22;7642;48.478;8.952;2022-09-03T21:31:11;17.40;99.90
15087;DHT22;7642;48.478;8.952;2022-09-03T21:33:38;17.30;99.90
15087;DHT22;7642;48.478;8.952;2022-09-03T21:36:15;17.80;99.90
15087;DHT22;7642;48.478;8.952;2022-09-03T21:38:46;17.20;99.90
15087;DHT22;7642;48.478;8.952;2022-09-03T21:41:26;17.10;99.90
15087;DHT22;7642;48.478;8.952;2022-09-03T21:43:55;17.10;99.90
15087;DHT22;7642;48.478;8.952;2022-09-03T21:46:46;17.00;99.90
15087;DHT22;7642;48.478;8.952;2022-09-03T21:49:19;16.90;99.90
15087;DHT22;7642;48.478;8.952;2022-09-03T21:51:56;16.90;99.90
15087;DHT22;7642;48.478;8.952;2022-09-03T21:54:29;16.80;99.90
15087;DHT22;7642;48.478;8.952;2022-09-03T21:59:53;16.90;99.90
15087;DHT22;7642;48.478;8.952;2022-09-03T22:02:31;16.80;99.90
15087;DHT22;7642;48.478;8.952;2022-09-03T22:04:58;16.80;99.90
15087;DHT22;7642;48.478;8.952;2022-09-03T22:15:42;16.60;99.90
15087;DHT22;7642;48.478;8.952;2022-09-03T22:18:26;16.60;99.90
15087;DHT22;7642;48.478;8.952;2022-09-03T22:21:02;16.60;99.90
15087;DHT22;7642;48.478;8.952;2022-09-03T22:26:25;16.60;99.90
15087;DHT22;7642;48.478;8.952;2022-09-03T22:29:00;16.90;99.90
15087;DHT22;7642;48.478;8.952;2022-09-03T22:31:48;16.70;99.90
15087;DHT22;7642;48.478;8.952;2022-09-03T22:34:29;17.30;99.90
15087;DHT22;7642;48.478;8.952;2022-09-03T22:37:01;16.40;99.90
15087;DHT22;7642;48.478;8.952;2022-09-03T22:47:34;16.30;99.90
15087;DHT22;7642;48.478;8.952;2022-09-03T22:52:51;16.00;99.90
15087;DHT22;7642;48.478;8.952;2022-09-03T22:55:20;16.20;99.90
15087;DHT22;7642;48.478;8.952;2022-09-03T22:58:02;16.20;99.90
15087;DHT22;7642;48.478;8.952;2022-09-03T23:00:36;16.20;99.90
15087;DHT22;7642;48.478;8.952;2022-09-03T23:03:09;16.20;99.90
15087;DHT22;7642;48.478;8.952;2022-09-03T23:05:53;16.20;99.90